createdAt,value
2018-04-16T00:00:09.816Z,11.74
2018-04-16T00:00:22.042Z,11.74
2018-04-16T00:00:34.330Z,11.74
2018-04-16T00:00:46.553Z,11.74
2018-04-16T00:00:58.722Z,11.74
2018-04-16T00:01:10.924Z,11.74
2018-04-16T00:01:23.110Z,11.74
2018-04-16T00:01:35.293Z,11.74
2018-04-16T00:01:47.463Z,11.74
2018-04-16T00:01:59.646Z,11.74
2018-04-16T00:02:11.842Z,11.74
2018-04-16T00:02:24.010Z,11.74
2018-04-16T00:02:36.179Z,11.74
2018-04-16T00:02:48.372Z,11.74
2018-04-16T00:03:00.551Z,11.74
2018-04-16T00:03:12.739Z,11.74
2018-04-16T00:03:24.946Z,11.74
2018-04-16T00:03:37.113Z,11.74
2018-04-16T00:03:49.281Z,11.74
2018-04-16T00:04:01.459Z,11.74
2018-04-16T00:04:13.623Z,12.66
2018-04-16T00:04:25.911Z,12.66
2018-04-16T00:04:38.089Z,12.66
2018-04-16T00:04:50.265Z,12.66
2018-04-16T00:05:02.447Z,12.66
2018-04-16T00:05:14.601Z,12.66
2018-04-16T00:05:26.755Z,12.66
2018-04-16T00:05:38.996Z,12.66
2018-04-16T00:05:51.215Z,12.66
2018-04-16T00:06:03.662Z,12.66
2018-04-16T00:06:15.872Z,12.66
2018-04-16T00:06:28.065Z,12.66
2018-04-16T00:06:40.238Z,12.66
2018-04-16T00:06:52.395Z,12.66
2018-04-16T00:07:04.560Z,12.66
2018-04-16T00:07:16.750Z,12.66
2018-04-16T00:07:28.906Z,12.66
2018-04-16T00:07:41.064Z,12.66
2018-04-16T00:07:53.212Z,12.66
2018-04-16T00:08:05.375Z,12.66
2018-04-16T00:08:17.545Z,12.66
2018-04-16T00:08:29.713Z,12.66
2018-04-16T00:08:41.900Z,12.66
2018-04-16T00:08:54.128Z,12.66
2018-04-16T00:09:06.284Z,12.66
2018-04-16T00:09:18.461Z,12.66
2018-04-16T00:09:30.672Z,12.66
2018-04-16T00:09:42.819Z,12.66
2018-04-16T00:09:54.995Z,12.66
2018-04-16T00:10:07.333Z,12.66
2018-04-16T00:10:19.503Z,12.66
2018-04-16T00:10:31.706Z,12.66
2018-04-16T00:10:43.898Z,12.66
2018-04-16T00:10:56.052Z,12.66
2018-04-16T00:11:08.212Z,12.66
2018-04-16T00:11:20.387Z,12.66
2018-04-16T00:11:32.547Z,12.66
2018-04-16T00:11:44.715Z,12.66
2018-04-16T00:11:56.883Z,12.66
2018-04-16T00:12:09.044Z,12.66
2018-04-16T00:12:21.263Z,12.66
2018-04-16T00:12:33.430Z,12.66
2018-04-16T00:12:45.595Z,12.66
2018-04-16T00:12:57.757Z,12.66
2018-04-16T00:13:09.939Z,12.66
2018-04-16T00:13:22.328Z,12.66
2018-04-16T00:13:34.724Z,12.66
2018-04-16T00:13:46.879Z,12.66
2018-04-16T00:13:59.033Z,12.66
2018-04-16T00:14:11.198Z,12.1
2018-04-16T00:14:23.366Z,12.1
2018-04-16T00:14:35.547Z,12.1
2018-04-16T00:14:47.704Z,12.1
2018-04-16T00:14:59.883Z,12.1
2018-04-16T00:15:12.069Z,12.1
2018-04-16T00:15:24.238Z,12.1
2018-04-16T00:15:36.405Z,12.1
2018-04-16T00:15:48.584Z,12.1
2018-04-16T00:16:00.763Z,12.1
2018-04-16T00:16:12.925Z,12.1
2018-04-16T00:16:25.108Z,12.1
2018-04-16T00:16:37.276Z,12.1
2018-04-16T00:16:49.433Z,12.1
2018-04-16T00:17:01.597Z,12.1
2018-04-16T00:17:13.806Z,12.1
2018-04-16T00:17:25.975Z,12.1
2018-04-16T00:17:38.149Z,12.1
2018-04-16T00:17:50.339Z,12.1
2018-04-16T00:18:02.524Z,12.1
2018-04-16T00:18:14.819Z,12.1
2018-04-16T00:18:27.243Z,12.1
2018-04-16T00:18:39.434Z,12.1
2018-04-16T00:18:51.598Z,12.1
2018-04-16T00:19:03.786Z,12.1
2018-04-16T00:19:15.970Z,12.1
2018-04-16T00:19:28.141Z,12.1
2018-04-16T00:19:40.317Z,12.1
2018-04-16T00:19:52.484Z,12.1
2018-04-16T00:20:04.639Z,12.1
2018-04-16T00:20:16.802Z,12.1
2018-04-16T00:20:28.982Z,12.1
2018-04-16T00:20:41.132Z,12.1
2018-04-16T00:20:53.305Z,12.1
2018-04-16T00:21:05.467Z,12.1
2018-04-16T00:21:17.618Z,12.1
2018-04-16T00:21:29.786Z,12.1
2018-04-16T00:21:42.144Z,12.1
2018-04-16T00:21:54.336Z,12.1
2018-04-16T00:22:06.510Z,12.1
2018-04-16T00:22:18.695Z,12.1
2018-04-16T00:22:30.846Z,12.1
2018-04-16T00:22:43.051Z,12.1
2018-04-16T00:22:55.239Z,12.1
2018-04-16T00:23:07.398Z,12.1
2018-04-16T00:23:19.573Z,12.1
2018-04-16T00:23:31.744Z,12.1
2018-04-16T00:23:43.916Z,12.1
2018-04-16T00:23:56.078Z,12.1
2018-04-16T00:24:08.339Z,12.14
2018-04-16T00:24:20.495Z,12.14
2018-04-16T00:24:32.694Z,12.14
2018-04-16T00:24:44.894Z,12.14
2018-04-16T00:24:57.035Z,12.14
2018-04-16T00:25:09.196Z,12.14
2018-04-16T00:25:21.421Z,12.14
2018-04-16T00:25:33.615Z,12.14
2018-04-16T00:25:45.790Z,12.14
2018-04-16T00:25:57.969Z,12.14
2018-04-16T00:26:10.126Z,12.14
2018-04-16T00:26:22.280Z,12.14
2018-04-16T00:26:34.453Z,12.14
2018-04-16T00:26:46.624Z,12.14
2018-04-16T00:26:58.807Z,12.14
2018-04-16T00:27:10.963Z,12.14
2018-04-16T00:27:23.124Z,12.14
2018-04-16T00:27:35.307Z,12.14
2018-04-16T00:27:47.469Z,12.14
2018-04-16T00:27:59.650Z,12.14
2018-04-16T00:28:11.826Z,12.14
2018-04-16T00:28:23.978Z,12.14
2018-04-16T00:28:36.140Z,12.14
2018-04-16T00:28:48.360Z,12.14
2018-04-16T00:29:00.536Z,12.14
2018-04-16T00:29:12.749Z,12.14
2018-04-16T00:29:25.025Z,12.14
2018-04-16T00:29:37.187Z,12.14
2018-04-16T00:29:49.346Z,12.14
2018-04-16T00:30:01.504Z,12.14
2018-04-16T00:30:13.672Z,12.14
2018-04-16T00:30:25.828Z,12.14
2018-04-16T00:30:37.986Z,12.14
2018-04-16T00:30:50.151Z,12.14
2018-04-16T00:31:02.324Z,12.14
2018-04-16T00:31:14.488Z,12.14
2018-04-16T00:31:26.660Z,12.14
2018-04-16T00:31:38.818Z,12.14
2018-04-16T00:31:50.997Z,12.14
2018-04-16T00:32:03.171Z,12.14
2018-04-16T00:32:15.333Z,12.14
2018-04-16T00:32:27.489Z,12.14
2018-04-16T00:32:39.655Z,12.14
2018-04-16T00:32:51.815Z,12.14
2018-04-16T00:33:03.999Z,12.14
2018-04-16T00:33:16.187Z,12.14
2018-04-16T00:33:28.345Z,12.14
2018-04-16T00:33:40.540Z,12.14
2018-04-16T00:33:52.707Z,12.14
2018-04-16T00:34:04.864Z,12.14
2018-04-16T00:34:17.195Z,11.12
2018-04-16T00:34:29.366Z,11.12
2018-04-16T00:34:41.553Z,11.12
2018-04-16T00:34:53.745Z,11.12
2018-04-16T00:35:05.956Z,11.12
2018-04-16T00:35:18.128Z,11.12
2018-04-16T00:35:30.292Z,11.12
2018-04-16T00:35:42.516Z,11.12
2018-04-16T00:35:54.711Z,11.12
2018-04-16T00:36:06.861Z,11.12
2018-04-16T00:36:19.028Z,11.12
2018-04-16T00:36:31.178Z,11.12
2018-04-16T00:36:43.349Z,11.12
2018-04-16T00:36:55.494Z,11.12
2018-04-16T00:37:07.657Z,11.12
2018-04-16T00:37:19.858Z,11.12
2018-04-16T00:37:32.036Z,11.12
2018-04-16T00:37:44.184Z,11.12
2018-04-16T00:37:56.356Z,11.12
2018-04-16T00:38:08.518Z,11.12
2018-04-16T00:38:20.709Z,11.12
2018-04-16T00:38:32.882Z,11.12
2018-04-16T00:38:45.071Z,11.12
2018-04-16T00:38:57.243Z,11.12
2018-04-16T00:39:09.389Z,11.12
2018-04-16T00:39:21.621Z,11.12
2018-04-16T00:39:33.789Z,11.12
2018-04-16T00:39:45.972Z,11.12
2018-04-16T00:39:58.143Z,11.12
2018-04-16T00:40:10.313Z,11.12
2018-04-16T00:40:22.469Z,11.12
2018-04-16T00:40:34.635Z,11.12
2018-04-16T00:40:46.814Z,11.12
2018-04-16T00:40:58.993Z,11.12
2018-04-16T00:41:11.157Z,11.12
2018-04-16T00:41:23.351Z,11.12
2018-04-16T00:41:35.807Z,11.12
2018-04-16T00:41:47.987Z,11.12
2018-04-16T00:42:00.134Z,11.12
2018-04-16T00:42:12.285Z,11.12
2018-04-16T00:42:24.455Z,11.12
2018-04-16T00:42:36.635Z,11.12
2018-04-16T00:42:48.792Z,11.12
2018-04-16T00:43:00.979Z,11.12
2018-04-16T00:43:13.147Z,11.12
2018-04-16T00:43:25.304Z,11.12
2018-04-16T00:43:37.463Z,11.12
2018-04-16T00:43:49.614Z,11.12
2018-04-16T00:44:01.776Z,11.12
2018-04-16T00:44:13.943Z,11.8
2018-04-16T00:44:26.111Z,11.8
2018-04-16T00:44:38.272Z,11.8
2018-04-16T00:44:50.425Z,11.8
2018-04-16T00:45:02.594Z,11.8
2018-04-16T00:45:14.763Z,11.8
2018-04-16T00:45:26.938Z,11.8
2018-04-16T00:45:39.147Z,11.8
2018-04-16T00:45:51.323Z,11.8
2018-04-16T00:46:03.505Z,11.8
2018-04-16T00:46:15.655Z,11.8
2018-04-16T00:46:27.846Z,11.8
2018-04-16T00:46:40.073Z,11.8
2018-04-16T00:46:52.234Z,11.8
2018-04-16T00:47:04.385Z,11.8
2018-04-16T00:47:16.547Z,11.8
2018-04-16T00:47:28.777Z,11.8
2018-04-16T00:47:41.221Z,11.8
2018-04-16T00:47:53.380Z,11.8
2018-04-16T00:48:05.652Z,11.8
2018-04-16T00:48:17.834Z,11.8
2018-04-16T00:48:29.976Z,11.8
2018-04-16T00:48:42.192Z,11.8
2018-04-16T00:48:54.347Z,11.8
2018-04-16T00:49:06.511Z,11.8
2018-04-16T00:49:18.689Z,11.8
2018-04-16T00:49:30.852Z,11.8
2018-04-16T00:49:43.258Z,11.8
2018-04-16T00:49:55.424Z,11.8
2018-04-16T00:50:07.583Z,11.8
2018-04-16T00:50:19.759Z,11.8
2018-04-16T00:50:31.906Z,11.8
2018-04-16T00:50:44.078Z,11.8
2018-04-16T00:50:56.245Z,11.8
2018-04-16T00:51:08.394Z,11.8
2018-04-16T00:51:20.620Z,11.8
2018-04-16T00:51:32.793Z,11.8
2018-04-16T00:51:44.940Z,11.8
2018-04-16T00:51:57.092Z,11.8
2018-04-16T00:52:09.284Z,11.8
2018-04-16T00:52:21.443Z,11.8
2018-04-16T00:52:33.616Z,11.8
2018-04-16T00:52:45.765Z,11.8
2018-04-16T00:52:57.935Z,11.8
2018-04-16T00:53:10.470Z,11.8
2018-04-16T00:53:22.806Z,11.8
2018-04-16T00:53:34.993Z,11.8
2018-04-16T00:53:47.150Z,11.8
2018-04-16T00:53:59.325Z,11.8
2018-04-16T00:54:11.492Z,11.8
2018-04-16T00:54:23.668Z,12.59
2018-04-16T00:54:35.900Z,12.59
2018-04-16T00:54:48.097Z,12.59
2018-04-16T00:55:00.262Z,12.59
2018-04-16T00:55:12.448Z,12.59
2018-04-16T00:55:24.660Z,12.59
2018-04-16T00:55:36.839Z,12.59
2018-04-16T00:55:49.009Z,12.59
2018-04-16T00:56:01.177Z,12.59
2018-04-16T00:56:13.316Z,12.59
2018-04-16T00:56:25.494Z,12.59
2018-04-16T00:56:37.703Z,12.59
2018-04-16T00:56:49.860Z,12.59
2018-04-16T00:57:02.022Z,12.59
2018-04-16T00:57:14.185Z,12.59
2018-04-16T00:57:26.368Z,12.59
2018-04-16T00:57:38.527Z,12.59
2018-04-16T00:57:50.688Z,12.59
2018-04-16T00:58:02.837Z,12.59
2018-04-16T00:58:14.982Z,12.59
2018-04-16T00:58:27.201Z,12.59
2018-04-16T00:58:39.360Z,12.59
2018-04-16T00:58:51.528Z,12.59
2018-04-16T00:59:03.755Z,12.59
2018-04-16T00:59:15.949Z,12.59
2018-04-16T00:59:28.105Z,12.59
2018-04-16T00:59:40.318Z,12.59
2018-04-16T00:59:52.481Z,12.59
2018-04-16T01:00:04.650Z,12.59
2018-04-16T01:00:16.856Z,12.59
2018-04-16T01:00:29.089Z,12.59
2018-04-16T01:00:41.280Z,12.59
2018-04-16T01:00:53.504Z,12.59
2018-04-16T01:01:05.696Z,12.59
2018-04-16T01:01:17.864Z,12.59
2018-04-16T01:01:30.060Z,12.59
2018-04-16T01:01:42.224Z,12.59
2018-04-16T01:01:54.398Z,12.59
2018-04-16T01:02:06.579Z,12.59
2018-04-16T01:02:18.749Z,12.59
2018-04-16T01:02:30.905Z,12.59
2018-04-16T01:02:43.091Z,12.59
2018-04-16T01:02:55.250Z,12.59
2018-04-16T01:03:07.422Z,12.59
2018-04-16T01:03:19.598Z,12.59
2018-04-16T01:03:31.760Z,12.59
2018-04-16T01:03:43.933Z,12.59
2018-04-16T01:03:56.113Z,12.59
2018-04-16T01:04:08.311Z,12.59
2018-04-16T01:04:20.508Z,12.59
2018-04-16T01:04:32.675Z,13.15
2018-04-16T01:04:44.867Z,13.15
2018-04-16T01:04:57.028Z,13.15
2018-04-16T01:05:09.270Z,13.15
2018-04-16T01:05:21.449Z,13.15
2018-04-16T01:05:33.707Z,13.15
2018-04-16T01:05:45.898Z,13.15
2018-04-16T01:05:58.056Z,13.15
2018-04-16T01:06:10.207Z,13.15
2018-04-16T01:06:22.387Z,13.15
2018-04-16T01:06:34.556Z,13.15
2018-04-16T01:06:46.730Z,13.15
2018-04-16T01:06:58.884Z,13.15
2018-04-16T01:07:11.066Z,13.15
2018-04-16T01:07:23.300Z,13.15
2018-04-16T01:07:35.496Z,13.15
2018-04-16T01:07:47.657Z,13.15
2018-04-16T01:07:59.850Z,13.15
2018-04-16T01:08:12.036Z,13.15
2018-04-16T01:08:24.214Z,13.15
2018-04-16T01:08:36.383Z,13.15
2018-04-16T01:08:48.571Z,13.15
2018-04-16T01:09:00.729Z,13.15
2018-04-16T01:09:12.905Z,13.15
2018-04-16T01:09:25.071Z,13.15
2018-04-16T01:09:37.243Z,13.15
2018-04-16T01:09:49.469Z,13.15
2018-04-16T01:10:01.642Z,13.15
2018-04-16T01:10:13.816Z,13.15
2018-04-16T01:10:25.985Z,13.15
2018-04-16T01:10:38.234Z,13.15
2018-04-16T01:10:50.398Z,13.15
2018-04-16T01:11:02.583Z,13.15
2018-04-16T01:11:14.749Z,13.15
2018-04-16T01:11:26.936Z,13.15
2018-04-16T01:11:39.091Z,13.15
2018-04-16T01:11:51.289Z,13.15
2018-04-16T01:12:03.440Z,13.15
2018-04-16T01:12:15.605Z,13.15
2018-04-16T01:12:27.761Z,13.15
2018-04-16T01:12:39.928Z,13.15
2018-04-16T01:12:52.088Z,13.15
2018-04-16T01:13:04.245Z,13.15
2018-04-16T01:13:16.668Z,13.15
2018-04-16T01:13:28.840Z,13.15
2018-04-16T01:13:41.241Z,13.15
2018-04-16T01:13:53.405Z,13.15
2018-04-16T01:14:05.569Z,13.15
2018-04-16T01:14:17.767Z,13.15
2018-04-16T01:14:29.933Z,13.36
2018-04-16T01:14:42.140Z,13.36
2018-04-16T01:14:54.348Z,13.36
2018-04-16T01:15:06.508Z,13.36
2018-04-16T01:15:18.683Z,13.36
2018-04-16T01:15:30.854Z,13.36
2018-04-16T01:15:43.049Z,13.36
2018-04-16T01:15:55.239Z,13.36
2018-04-16T01:16:07.466Z,13.36
2018-04-16T01:16:19.618Z,13.36
2018-04-16T01:16:31.794Z,13.36
2018-04-16T01:16:43.947Z,13.36
2018-04-16T01:16:56.109Z,13.36
2018-04-16T01:17:08.327Z,13.36
2018-04-16T01:17:20.490Z,13.36
2018-04-16T01:17:32.662Z,13.36
2018-04-16T01:17:44.833Z,13.36
2018-04-16T01:17:56.991Z,13.36
2018-04-16T01:18:09.370Z,13.36
2018-04-16T01:18:21.533Z,13.36
2018-04-16T01:18:33.910Z,13.36
2018-04-16T01:18:46.069Z,13.36
2018-04-16T01:18:58.248Z,13.36
2018-04-16T01:19:10.408Z,13.36
2018-04-16T01:19:22.578Z,13.36
2018-04-16T01:19:34.776Z,13.36
2018-04-16T01:19:46.957Z,13.36
2018-04-16T01:19:59.175Z,13.36
2018-04-16T01:20:11.356Z,13.36
2018-04-16T01:20:23.520Z,13.36
2018-04-16T01:20:35.676Z,13.36
2018-04-16T01:20:47.832Z,13.36
2018-04-16T01:20:59.984Z,13.36
2018-04-16T01:21:12.121Z,13.36
2018-04-16T01:21:24.290Z,13.36
2018-04-16T01:21:36.502Z,13.36
2018-04-16T01:21:48.788Z,13.36
2018-04-16T01:22:00.963Z,13.36
2018-04-16T01:22:13.138Z,13.36
2018-04-16T01:22:25.309Z,13.36
2018-04-16T01:22:37.523Z,13.36
2018-04-16T01:22:49.686Z,13.36
2018-04-16T01:23:01.861Z,13.36
2018-04-16T01:23:14.023Z,13.36
2018-04-16T01:23:26.187Z,13.36
2018-04-16T01:23:38.381Z,13.36
2018-04-16T01:23:50.541Z,13.36
2018-04-16T01:24:02.714Z,13.36
2018-04-16T01:24:14.872Z,13.36
2018-04-16T01:24:27.044Z,13.38
2018-04-16T01:24:39.228Z,13.38
2018-04-16T01:24:51.404Z,13.38
2018-04-16T01:25:03.578Z,13.38
2018-04-16T01:25:15.786Z,13.38
2018-04-16T01:25:27.992Z,13.38
2018-04-16T01:25:40.186Z,13.38
2018-04-16T01:25:52.351Z,13.38
2018-04-16T01:26:04.540Z,13.38
2018-04-16T01:26:16.716Z,13.38
2018-04-16T01:26:28.897Z,13.38
2018-04-16T01:26:41.095Z,13.38
2018-04-16T01:26:53.252Z,13.38
2018-04-16T01:27:05.412Z,13.38
2018-04-16T01:27:17.781Z,13.38
2018-04-16T01:27:29.960Z,13.38
2018-04-16T01:27:42.126Z,13.38
2018-04-16T01:27:54.313Z,13.38
2018-04-16T01:28:06.496Z,13.38
2018-04-16T01:28:18.690Z,13.38
2018-04-16T01:28:30.901Z,13.38
2018-04-16T01:28:43.107Z,13.38
2018-04-16T01:28:55.297Z,13.38
2018-04-16T01:29:07.486Z,13.38
2018-04-16T01:29:19.642Z,13.38
2018-04-16T01:29:31.822Z,13.38
2018-04-16T01:29:43.985Z,13.38
2018-04-16T01:29:56.142Z,13.38
2018-04-16T01:30:08.315Z,13.38
2018-04-16T01:30:20.483Z,13.38
2018-04-16T01:30:32.635Z,13.38
2018-04-16T01:30:44.802Z,13.38
2018-04-16T01:30:56.950Z,13.38
2018-04-16T01:31:09.116Z,13.38
2018-04-16T01:31:21.291Z,13.38
2018-04-16T01:31:33.461Z,13.38
2018-04-16T01:31:45.676Z,13.38
2018-04-16T01:31:57.825Z,13.38
2018-04-16T01:32:09.985Z,13.38
2018-04-16T01:32:22.206Z,13.38
2018-04-16T01:32:34.370Z,13.38
2018-04-16T01:32:46.569Z,13.38
2018-04-16T01:32:58.745Z,13.38
2018-04-16T01:33:10.889Z,13.38
2018-04-16T01:33:23.049Z,13.38
2018-04-16T01:33:35.215Z,13.38
2018-04-16T01:33:47.383Z,13.38
2018-04-16T01:33:59.536Z,13.38
2018-04-16T01:34:11.703Z,13.38
2018-04-16T01:34:24.037Z,13.67
2018-04-16T01:34:36.209Z,13.67
2018-04-16T01:34:48.366Z,13.67
2018-04-16T01:35:00.530Z,13.67
2018-04-16T01:35:12.690Z,13.67
2018-04-16T01:35:24.862Z,13.67
2018-04-16T01:35:37.016Z,13.67
2018-04-16T01:35:49.168Z,13.67
2018-04-16T01:36:01.319Z,13.67
2018-04-16T01:36:13.475Z,13.67
2018-04-16T01:36:25.647Z,13.67
2018-04-16T01:36:37.833Z,13.67
2018-04-16T01:36:49.987Z,13.67
2018-04-16T01:37:02.175Z,13.67
2018-04-16T01:37:14.368Z,13.67
2018-04-16T01:37:26.601Z,13.67
2018-04-16T01:37:38.802Z,13.67
2018-04-16T01:37:51.022Z,13.67
2018-04-16T01:38:03.196Z,13.67
2018-04-16T01:38:15.363Z,13.67
2018-04-16T01:38:27.521Z,13.67
2018-04-16T01:38:39.687Z,13.67
2018-04-16T01:38:51.848Z,13.67
2018-04-16T01:39:04.033Z,13.67
2018-04-16T01:39:16.355Z,13.67
2018-04-16T01:39:28.607Z,13.67
2018-04-16T01:39:40.939Z,13.67
2018-04-16T01:39:53.115Z,13.67
2018-04-16T01:40:05.328Z,13.67
2018-04-16T01:40:17.500Z,13.67
2018-04-16T01:40:29.680Z,13.67
2018-04-16T01:40:41.851Z,13.67
2018-04-16T01:40:54.018Z,13.67
2018-04-16T01:41:06.332Z,13.67
2018-04-16T01:41:18.482Z,13.67
2018-04-16T01:41:30.659Z,13.67
2018-04-16T01:41:42.797Z,13.67
2018-04-16T01:41:55.014Z,13.67
2018-04-16T01:42:07.199Z,13.67
2018-04-16T01:42:19.369Z,13.67
2018-04-16T01:42:31.553Z,13.67
2018-04-16T01:42:43.700Z,13.67
2018-04-16T01:42:55.854Z,13.67
2018-04-16T01:43:08.051Z,13.67
2018-04-16T01:43:20.201Z,13.67
2018-04-16T01:43:32.373Z,13.67
2018-04-16T01:43:44.554Z,13.67
2018-04-16T01:43:56.745Z,13.67
2018-04-16T01:44:08.938Z,13.67
2018-04-16T01:44:21.077Z,13.67
2018-04-16T01:44:33.240Z,13.77
2018-04-16T01:44:45.417Z,13.77
2018-04-16T01:44:57.590Z,13.77
2018-04-16T01:45:09.754Z,13.77
2018-04-16T01:45:21.907Z,13.77
2018-04-16T01:45:34.059Z,13.77
2018-04-16T01:45:46.230Z,13.77
2018-04-16T01:45:58.377Z,13.77
2018-04-16T01:46:10.610Z,13.77
2018-04-16T01:46:22.769Z,13.77
2018-04-16T01:46:34.942Z,13.77
2018-04-16T01:46:47.132Z,13.77
2018-04-16T01:46:59.314Z,13.77
2018-04-16T01:47:11.481Z,13.77
2018-04-16T01:47:23.645Z,13.77
2018-04-16T01:47:35.802Z,13.77
2018-04-16T01:47:47.958Z,13.77
2018-04-16T01:48:00.135Z,13.77
2018-04-16T01:48:12.398Z,13.77
2018-04-16T01:48:24.566Z,13.77
2018-04-16T01:48:36.740Z,13.77
2018-04-16T01:48:48.911Z,13.77
2018-04-16T01:49:01.126Z,13.77
2018-04-16T01:49:13.288Z,13.77
2018-04-16T01:49:25.515Z,13.77
2018-04-16T01:49:37.684Z,13.77
2018-04-16T01:49:49.947Z,13.77
2018-04-16T01:50:02.140Z,13.77
2018-04-16T01:50:14.355Z,13.77
2018-04-16T01:50:26.528Z,13.77
2018-04-16T01:50:38.697Z,13.77
2018-04-16T01:50:50.860Z,13.77
2018-04-16T01:51:03.059Z,13.77
2018-04-16T01:51:15.330Z,13.77
2018-04-16T01:51:27.473Z,13.77
2018-04-16T01:51:39.640Z,13.77
2018-04-16T01:51:51.824Z,13.77
2018-04-16T01:52:03.979Z,13.77
2018-04-16T01:52:16.149Z,13.77
2018-04-16T01:52:28.302Z,13.77
2018-04-16T01:52:40.495Z,13.77
2018-04-16T01:52:52.662Z,13.77
2018-04-16T01:53:04.826Z,13.77
2018-04-16T01:53:17.000Z,13.77
2018-04-16T01:53:29.181Z,13.77
2018-04-16T01:53:41.346Z,13.77
2018-04-16T01:53:53.513Z,13.77
2018-04-16T01:54:05.677Z,13.77
2018-04-16T01:54:17.842Z,13.77
2018-04-16T01:54:30.011Z,13.56
2018-04-16T01:54:42.181Z,13.56
2018-04-16T01:54:54.348Z,13.56
2018-04-16T01:55:06.516Z,13.56
2018-04-16T01:55:18.696Z,13.56
2018-04-16T01:55:30.864Z,13.56
2018-04-16T01:55:43.047Z,13.56
2018-04-16T01:55:55.238Z,13.56
2018-04-16T01:56:07.425Z,13.56
2018-04-16T01:56:19.772Z,13.56
2018-04-16T01:56:31.939Z,13.56
2018-04-16T01:56:44.112Z,13.56
2018-04-16T01:56:56.246Z,13.56
2018-04-16T01:57:08.431Z,13.56
2018-04-16T01:57:20.612Z,13.56
2018-04-16T01:57:32.787Z,13.56
2018-04-16T01:57:44.965Z,13.56
2018-04-16T01:57:57.130Z,13.56
2018-04-16T01:58:09.333Z,13.56
2018-04-16T01:58:21.491Z,13.56
2018-04-16T01:58:33.645Z,13.56
2018-04-16T01:58:45.814Z,13.56
2018-04-16T01:58:57.974Z,13.56
2018-04-16T01:59:10.152Z,13.56
2018-04-16T01:59:22.316Z,13.56
2018-04-16T01:59:34.476Z,13.56
2018-04-16T01:59:46.623Z,13.56
2018-04-16T01:59:58.778Z,13.56
2018-04-16T02:00:10.955Z,13.56
2018-04-16T02:00:23.166Z,13.56
2018-04-16T02:00:35.362Z,13.56
2018-04-16T02:00:47.571Z,13.56
2018-04-16T02:00:59.816Z,13.56
2018-04-16T02:01:12.108Z,13.56
2018-04-16T02:01:24.293Z,13.56
2018-04-16T02:01:36.448Z,13.56
2018-04-16T02:01:48.624Z,13.56
2018-04-16T02:02:00.787Z,13.56
2018-04-16T02:02:12.972Z,13.56
2018-04-16T02:02:25.158Z,13.56
2018-04-16T02:02:37.342Z,13.56
2018-04-16T02:02:49.560Z,13.56
2018-04-16T02:03:01.724Z,13.56
2018-04-16T02:03:13.946Z,13.56
2018-04-16T02:03:26.155Z,13.56
2018-04-16T02:03:38.358Z,13.56
2018-04-16T02:03:50.544Z,13.56
2018-04-16T02:04:02.724Z,13.56
2018-04-16T02:04:14.907Z,13.56
2018-04-16T02:04:27.093Z,14.2
2018-04-16T02:04:39.255Z,14.2
2018-04-16T02:04:51.413Z,14.2
2018-04-16T02:05:03.590Z,14.2
2018-04-16T02:05:15.772Z,14.2
2018-04-16T02:05:27.952Z,14.2
2018-04-16T02:05:40.145Z,14.2
2018-04-16T02:05:52.306Z,14.2
2018-04-16T02:06:04.509Z,14.2
2018-04-16T02:06:16.744Z,14.2
2018-04-16T02:06:28.906Z,14.2
2018-04-16T02:06:41.069Z,14.2
2018-04-16T02:06:53.236Z,14.2
2018-04-16T02:07:05.422Z,14.2
2018-04-16T02:07:17.582Z,14.2
2018-04-16T02:07:29.747Z,14.2
2018-04-16T02:07:41.903Z,14.2
2018-04-16T02:07:54.067Z,14.2
2018-04-16T02:08:06.247Z,14.2
2018-04-16T02:08:18.424Z,14.2
2018-04-16T02:08:30.585Z,14.2
2018-04-16T02:08:42.763Z,14.2
2018-04-16T02:08:54.958Z,14.2
2018-04-16T02:09:07.142Z,14.2
2018-04-16T02:09:19.336Z,14.2
2018-04-16T02:09:31.489Z,14.2
2018-04-16T02:09:43.645Z,14.2
2018-04-16T02:09:55.824Z,14.2
2018-04-16T02:10:08.016Z,14.2
2018-04-16T02:10:20.194Z,14.2
2018-04-16T02:10:32.374Z,14.2
2018-04-16T02:10:44.538Z,14.2
2018-04-16T02:10:56.718Z,14.2
2018-04-16T02:11:08.880Z,14.2
2018-04-16T02:11:21.263Z,14.2
2018-04-16T02:11:33.768Z,14.2
2018-04-16T02:11:46.088Z,14.2
2018-04-16T02:11:58.257Z,14.2
2018-04-16T02:12:10.427Z,14.2
2018-04-16T02:12:22.592Z,14.2
2018-04-16T02:12:34.743Z,14.2
2018-04-16T02:12:46.923Z,14.2
2018-04-16T02:12:59.101Z,14.2
2018-04-16T02:13:11.274Z,14.2
2018-04-16T02:13:23.611Z,14.2
2018-04-16T02:13:35.920Z,14.2
2018-04-16T02:13:48.080Z,14.2
2018-04-16T02:14:00.270Z,14.2
2018-04-16T02:14:12.448Z,14.2
2018-04-16T02:14:24.599Z,14.2
2018-04-16T02:14:36.784Z,13.97
2018-04-16T02:14:49.106Z,13.97
2018-04-16T02:15:01.274Z,13.97
2018-04-16T02:15:13.443Z,13.97
2018-04-16T02:15:25.613Z,13.97
2018-04-16T02:15:37.797Z,13.97
2018-04-16T02:15:49.972Z,13.97
2018-04-16T02:16:02.139Z,13.97
2018-04-16T02:16:14.290Z,13.97
2018-04-16T02:16:26.445Z,13.97
2018-04-16T02:16:38.618Z,13.97
2018-04-16T02:16:50.782Z,13.97
2018-04-16T02:17:02.954Z,13.97
2018-04-16T02:17:15.125Z,13.97
2018-04-16T02:17:27.429Z,13.97
2018-04-16T02:17:39.589Z,13.97
2018-04-16T02:17:51.732Z,13.97
2018-04-16T02:18:03.897Z,13.97
2018-04-16T02:18:16.266Z,13.97
2018-04-16T02:18:28.600Z,13.97
2018-04-16T02:18:40.762Z,13.97
2018-04-16T02:18:52.926Z,13.97
2018-04-16T02:19:05.167Z,13.97
2018-04-16T02:19:17.322Z,13.97
2018-04-16T02:19:29.487Z,13.97
2018-04-16T02:19:41.646Z,13.97
2018-04-16T02:19:53.818Z,13.97
2018-04-16T02:20:06.022Z,13.97
2018-04-16T02:20:18.169Z,13.97
2018-04-16T02:20:30.336Z,13.97
2018-04-16T02:20:42.512Z,13.97
2018-04-16T02:20:54.665Z,13.97
2018-04-16T02:21:06.917Z,13.97
2018-04-16T02:21:19.072Z,13.97
2018-04-16T02:21:31.318Z,13.97
2018-04-16T02:21:43.488Z,13.97
2018-04-16T02:21:55.827Z,13.97
2018-04-16T02:22:08.074Z,13.97
2018-04-16T02:22:20.276Z,13.97
2018-04-16T02:22:32.475Z,13.97
2018-04-16T02:22:44.652Z,13.97
2018-04-16T02:22:56.828Z,13.97
2018-04-16T02:23:09.015Z,13.97
2018-04-16T02:23:21.189Z,13.97
2018-04-16T02:23:33.352Z,13.97
2018-04-16T02:23:45.502Z,13.97
2018-04-16T02:23:57.666Z,13.97
2018-04-16T02:24:09.841Z,13.97
2018-04-16T02:24:21.995Z,13.97
2018-04-16T02:24:34.180Z,14.22
2018-04-16T02:24:46.371Z,14.22
2018-04-16T02:24:58.562Z,14.22
2018-04-16T02:25:10.740Z,14.22
2018-04-16T02:25:22.909Z,14.22
2018-04-16T02:25:35.071Z,14.22
2018-04-16T02:25:47.501Z,14.22
2018-04-16T02:25:59.665Z,14.22
2018-04-16T02:26:11.845Z,14.22
2018-04-16T02:26:24.006Z,14.22
2018-04-16T02:26:36.158Z,14.22
2018-04-16T02:26:48.346Z,14.22
2018-04-16T02:27:00.523Z,14.22
2018-04-16T02:27:12.689Z,14.22
2018-04-16T02:27:24.890Z,14.22
2018-04-16T02:27:37.053Z,14.22
2018-04-16T02:27:49.235Z,14.22
2018-04-16T02:28:01.397Z,14.22
2018-04-16T02:28:13.555Z,14.22
2018-04-16T02:28:25.740Z,14.22
2018-04-16T02:28:37.915Z,14.22
2018-04-16T02:28:50.075Z,14.22
2018-04-16T02:29:02.287Z,14.22
2018-04-16T02:29:14.446Z,14.22
2018-04-16T02:29:26.617Z,14.22
2018-04-16T02:29:38.791Z,14.22
2018-04-16T02:29:50.974Z,14.22
2018-04-16T02:30:03.134Z,14.22
2018-04-16T02:30:15.302Z,14.22
2018-04-16T02:30:27.485Z,14.22
2018-04-16T02:30:39.714Z,14.22
2018-04-16T02:30:51.971Z,14.22
2018-04-16T02:31:04.167Z,14.22
2018-04-16T02:31:16.357Z,14.22
2018-04-16T02:31:28.574Z,14.22
2018-04-16T02:31:40.887Z,14.22
2018-04-16T02:31:53.086Z,14.22
2018-04-16T02:32:05.315Z,14.22
2018-04-16T02:32:17.479Z,14.22
2018-04-16T02:32:29.646Z,14.22
2018-04-16T02:32:41.825Z,14.22
2018-04-16T02:32:54.007Z,14.22
2018-04-16T02:33:06.248Z,14.22
2018-04-16T02:33:18.471Z,14.22
2018-04-16T02:33:30.648Z,14.22
2018-04-16T02:33:42.844Z,14.22
2018-04-16T02:33:55.031Z,14.22
2018-04-16T02:34:07.269Z,14.22
2018-04-16T02:34:19.673Z,14.22
2018-04-16T02:34:31.858Z,15.62
2018-04-16T02:34:44.030Z,15.62
2018-04-16T02:34:56.200Z,15.62
2018-04-16T02:35:08.371Z,15.62
2018-04-16T02:35:20.562Z,15.62
2018-04-16T02:35:32.798Z,15.62
2018-04-16T02:35:44.977Z,15.62
2018-04-16T02:35:57.154Z,15.62
2018-04-16T02:36:09.380Z,15.62
2018-04-16T02:36:21.683Z,15.62
2018-04-16T02:36:33.863Z,15.62
2018-04-16T02:36:46.183Z,15.62
2018-04-16T02:36:58.395Z,15.62
2018-04-16T02:37:10.603Z,15.62
2018-04-16T02:37:22.781Z,15.62
2018-04-16T02:37:34.936Z,15.62
2018-04-16T02:37:47.122Z,15.62
2018-04-16T02:37:59.309Z,15.62